createdAt,value
2023-03-15T00:02:07.490Z,100680.63
2023-03-15T00:04:37.152Z,100685.44
2023-03-15T00:07:05.056Z,100690.22
2023-03-15T00:09:33.226Z,100693.78
2023-03-15T00:12:01.128Z,100688.34
2023-03-15T00:14:29.063Z,100695.66
2023-03-15T00:16:56.984Z,100694.84
2023-03-15T00:19:25.091Z,100694.00
2023-03-15T00:21:54.461Z,100707.34
2023-03-15T00:24:24.985Z,100713.84
2023-03-15T00:26:53.033Z,100706.31
2023-03-15T00:29:21.292Z,100712.38
2023-03-15T00:31:50.053Z,100706.94
2023-03-15T00:34:18.949Z,100712.38
2023-03-15T00:36:46.880Z,100711.53
2023-03-15T00:39:16.984Z,100718.84
2023-03-15T00:41:45.746Z,100721.81
2023-03-15T00:44:13.775Z,100720.97
2023-03-15T00:46:41.730Z,100725.13
2023-03-15T00:49:09.985Z,100723.44
2023-03-15T00:51:38.525Z,100721.56
2023-03-15T00:54:06.493Z,100713.44
2023-03-15T00:56:35.806Z,100721.34
2023-03-15T00:59:04.005Z,100725.94
2023-03-15T01:01:31.963Z,100721.56
2023-03-15T01:03:59.840Z,100729.94
2023-03-15T01:06:28.682Z,100732.41
2023-03-15T01:08:57.281Z,100732.66
2023-03-15T01:11:26.679Z,100723.69
2023-03-15T01:13:56.783Z,100728.03
2023-03-15T01:16:24.897Z,100722.59
2023-03-15T01:18:53.337Z,100732.41
2023-03-15T01:21:21.549Z,100729.72
2023-03-15T01:23:49.588Z,100740.56
2023-03-15T01:26:18.000Z,100729.09
2023-03-15T01:28:45.940Z,100743.09
2023-03-15T01:31:18.551Z,100743.91
2023-03-15T01:33:46.524Z,100745.19
2023-03-15T01:36:14.399Z,100746.63
2023-03-15T01:38:42.609Z,100744.13
2023-03-15T01:41:10.965Z,100743.53
2023-03-15T01:43:38.845Z,100758.75
2023-03-15T01:46:09.143Z,100746.00
2023-03-15T01:48:39.981Z,100757.09
2023-03-15T01:51:10.805Z,100762.53
2023-03-15T01:53:38.710Z,100755.41
2023-03-15T01:56:07.291Z,100767.94
2023-03-15T01:58:36.870Z,100765.44
2023-03-15T02:01:05.340Z,100770.03
2023-03-15T02:03:35.320Z,100764.19
2023-03-15T02:06:06.602Z,100768.34
2023-03-15T02:08:36.934Z,100765.63
2023-03-15T02:11:06.070Z,100751.44
2023-03-15T02:13:34.739Z,100760.66
2023-03-15T02:16:06.864Z,100764.19
2023-03-15T02:18:36.743Z,100766.06
2023-03-15T02:21:11.678Z,100763.97
2023-03-15T02:23:39.619Z,100754.97
2023-03-15T02:26:13.786Z,100725.19
2023-03-15T02:28:43.206Z,100762.53
2023-03-15T02:31:11.521Z,100749.78
2023-03-15T02:33:42.272Z,100760.41
2023-03-15T02:36:15.953Z,100767.94
2023-03-15T02:38:43.916Z,100756.25
2023-03-15T02:41:12.316Z,100772.34
2023-03-15T02:43:40.196Z,100775.25
2023-03-15T02:46:09.648Z,100770.88
2023-03-15T02:48:37.636Z,100773.56
2023-03-15T02:51:05.881Z,100780.47
2023-03-15T02:53:33.953Z,100785.06
2023-03-15T02:56:01.859Z,100790.25
2023-03-15T02:58:29.873Z,100792.13
2023-03-15T03:00:58.162Z,100795.69
2023-03-15T03:03:27.501Z,100795.69
2023-03-15T03:05:55.401Z,100792.13
2023-03-15T03:08:23.300Z,100792.97
2023-03-15T03:10:51.534Z,100805.50
2023-03-15T03:13:19.467Z,100800.91
2023-03-15T03:15:47.375Z,100792.97
2023-03-15T03:18:15.264Z,100793.81
2023-03-15T03:20:46.114Z,100801.94
2023-03-15T03:23:14.098Z,100815.53
2023-03-15T03:25:41.992Z,100818.47
2023-03-15T03:28:09.896Z,100823.66
2023-03-15T03:30:38.201Z,100822.00
2023-03-15T03:33:06.097Z,100822.81
2023-03-15T03:35:34.008Z,100834.75
2023-03-15T03:38:03.370Z,100833.91
2023-03-15T03:40:32.216Z,100833.91
2023-03-15T03:43:00.136Z,100844.53
2023-03-15T03:45:28.108Z,100838.28
2023-03-15T03:47:55.996Z,100846.41
2023-03-15T03:50:24.192Z,100841.81
2023-03-15T03:52:52.073Z,100853.75
2023-03-15T03:55:25.052Z,100849.13
2023-03-15T03:57:53.214Z,100855.63
2023-03-15T04:00:21.870Z,100854.78
2023-03-15T04:02:49.831Z,100856.47
2023-03-15T04:05:17.887Z,100855.63
2023-03-15T04:07:45.762Z,100861.06
2023-03-15T04:10:14.826Z,100864.59
2023-03-15T04:12:44.487Z,100860.41
2023-03-15T04:15:12.688Z,100875.25
2023-03-15T04:17:40.662Z,100879.00
2023-03-15T04:20:12.118Z,100881.50
2023-03-15T04:22:40.080Z,100879.84
2023-03-15T04:25:08.835Z,100881.72
2023-03-15T04:27:37.080Z,100894.25
2023-03-15T04:30:09.833Z,100895.28
2023-03-15T04:32:37.756Z,100896.97
2023-03-15T04:35:06.196Z,100891.53
2023-03-15T04:37:34.126Z,100889.63
2023-03-15T04:40:02.392Z,100893.19
2023-03-15T04:42:30.276Z,100898.59
2023-03-15T04:44:58.172Z,100901.31
2023-03-15T04:47:27.449Z,100905.91
2023-03-15T04:49:55.591Z,100907.59
2023-03-15T04:52:23.472Z,100917.41
2023-03-15T04:54:51.397Z,100913.84
2023-03-15T04:57:19.278Z,100918.25
2023-03-15T04:59:47.427Z,100924.50
2023-03-15T05:02:15.418Z,100928.06
2023-03-15T05:04:44.897Z,100924.50
2023-03-15T05:07:12.848Z,100929.28
2023-03-15T05:09:41.062Z,100926.56
2023-03-15T05:12:09.571Z,100925.75
2023-03-15T05:14:37.510Z,100933.88
2023-03-15T05:17:05.523Z,100934.72
2023-03-15T05:19:34.654Z,100930.34
2023-03-15T05:22:04.128Z,100934.31
2023-03-15T05:24:32.322Z,100939.31
2023-03-15T05:27:00.208Z,100941.00
2023-03-15T05:29:28.443Z,100950.81
2023-03-15T05:31:56.477Z,100959.78
2023-03-15T05:34:24.534Z,100967.09
2023-03-15T05:36:52.440Z,100967.94
2023-03-15T05:39:23.023Z,100976.06
2023-03-15T05:41:51.136Z,100975.22
2023-03-15T05:44:18.992Z,100981.50
2023-03-15T05:46:46.924Z,100971.47
2023-03-15T05:49:15.082Z,100978.13
2023-03-15T05:51:43.872Z,100990.25
2023-03-15T05:54:12.022Z,100988.59
2023-03-15T05:56:41.296Z,100998.38
2023-03-15T05:59:09.467Z,101004.66
2023-03-15T06:01:37.395Z,101008.19
2023-03-15T06:04:05.665Z,101009.25
2023-03-15T06:06:33.988Z,101016.34
2023-03-15T06:09:02.205Z,101022.59
2023-03-15T06:11:30.476Z,101023.03
2023-03-15T06:13:59.947Z,101025.31
2023-03-15T06:16:28.299Z,101031.78
2023-03-15T06:18:56.574Z,101030.94
2023-03-15T06:21:24.504Z,101036.38
2023-03-15T06:23:52.444Z,101033.66
2023-03-15T06:26:20.498Z,101038.06
2023-03-15T06:28:48.729Z,101041.00
2023-03-15T06:31:17.999Z,101041.81
2023-03-15T06:33:45.898Z,101040.78
2023-03-15T06:36:14.319Z,101040.78
2023-03-15T06:38:43.046Z,101037.22
2023-03-15T06:41:12.474Z,101040.78
2023-03-15T06:43:40.327Z,101042.66
2023-03-15T06:46:08.325Z,101054.16
2023-03-15T06:48:37.630Z,101060.41
2023-03-15T06:51:05.992Z,101067.72
2023-03-15T06:53:33.963Z,101075.84
2023-03-15T06:56:01.913Z,101077.53
2023-03-15T06:58:29.799Z,101080.25
2023-03-15T07:00:58.029Z,101088.59
2023-03-15T07:03:25.932Z,101097.56
2023-03-15T07:05:55.230Z,101094.84
2023-03-15T07:08:23.364Z,101109.47
2023-03-15T07:10:51.608Z,101104.03
2023-03-15T07:13:19.581Z,101119.47
2023-03-15T07:15:48.155Z,101121.16
2023-03-15T07:18:16.051Z,101122.19
2023-03-15T07:20:43.930Z,101130.13
2023-03-15T07:23:13.267Z,101132.00
2023-03-15T07:25:54.024Z,101132.84
2023-03-15T07:28:22.643Z,101140.16
2023-03-15T07:30:54.808Z,101142.88
2023-03-15T07:33:23.565Z,101149.13
2023-03-15T07:35:51.623Z,101158.97
2023-03-15T07:38:20.936Z,101154.56
2023-03-15T07:40:49.130Z,101161.88
2023-03-15T07:43:17.117Z,101161.88
2023-03-15T07:45:45.062Z,101161.88
2023-03-15T07:48:12.978Z,101161.88
2023-03-15T07:50:40.981Z,101176.47
2023-03-15T07:53:08.899Z,101187.97
2023-03-15T07:55:38.241Z,101178.16
2023-03-15T07:58:06.179Z,101186.28
2023-03-15T08:00:34.336Z,101194.44
2023-03-15T08:03:02.338Z,101192.75
2023-03-15T08:05:30.424Z,101187.13
2023-03-15T08:07:58.626Z,101199.88
2023-03-15T08:10:26.625Z,101197.16
2023-03-15T08:12:55.923Z,101211.38
2023-03-15T08:15:23.871Z,101204.88
2023-03-15T08:17:51.990Z,101212.59
2023-03-15T08:20:20.353Z,101227.66
2023-03-15T08:22:48.957Z,101226.81
2023-03-15T08:25:19.123Z,101226.81
2023-03-15T08:27:46.983Z,101235.78
2023-03-15T08:30:17.107Z,101242.25
2023-03-15T08:32:45.686Z,101240.38
2023-03-15T08:35:15.604Z,101249.38
2023-03-15T08:37:47.879Z,101250.41
2023-03-15T08:40:16.285Z,101248.53
2023-03-15T08:42:44.203Z,101258.53
2023-03-15T08:45:12.652Z,101250.41
2023-03-15T08:47:41.978Z,101260.59
2023-03-15T08:50:12.130Z,101273.56
2023-03-15T08:52:40.118Z,101274.63
2023-03-15T08:55:08.697Z,101276.50
2023-03-15T08:57:36.631Z,101282.56
2023-03-15T09:00:10.214Z,101289.03
2023-03-15T09:02:38.387Z,101290.69
2023-03-15T09:05:10.505Z,101293.41
2023-03-15T09:07:38.463Z,101289.03
2023-03-15T09:10:07.398Z,101298.00
2023-03-15T09:12:35.339Z,101289.03
2023-03-15T09:15:03.297Z,101292.56
2023-03-15T09:17:31.737Z,101293.41
2023-03-15T09:19:59.928Z,101293.41
2023-03-15T09:22:38.935Z,101296.97
2023-03-15T09:25:08.244Z,101296.97
2023-03-15T09:27:36.144Z,101303.25
2023-03-15T09:30:04.654Z,101300.53
2023-03-15T09:32:36.607Z,101303.25
2023-03-15T09:35:04.831Z,101306.16
2023-03-15T09:37:34.124Z,101309.50
2023-03-15T09:40:02.914Z,101312.22
2023-03-15T09:42:36.519Z,101293.97
2023-03-15T09:45:09.957Z,101314.94
2023-03-15T09:47:41.311Z,101323.06
2023-03-15T09:50:14.974Z,101316.81
2023-03-15T09:52:44.579Z,101319.34
2023-03-15T09:55:14.386Z,101315.97
2023-03-15T09:57:44.575Z,101319.34
2023-03-15T10:00:14.813Z,101164.09
2023-03-15T10:02:45.477Z,101311.19
2023-03-15T10:05:16.259Z,101312.03
2023-03-15T10:07:45.631Z,101312.03
2023-03-15T10:10:17.632Z,101304.44
2023-03-15T10:12:50.720Z,101319.13
2023-03-15T10:15:31.228Z,101306.59
2023-03-15T10:18:11.000Z,101314.75
2023-03-15T10:20:41.336Z,101313.72
2023-03-15T10:23:12.659Z,101312.03
2023-03-15T10:25:41.088Z,101311.56
2023-03-15T10:28:11.490Z,101314.94
2023-03-15T10:30:40.654Z,101319.94
2023-03-15T10:33:18.345Z,101331.88
2023-03-15T10:35:46.311Z,101328.09
2023-03-15T10:38:17.072Z,101330.81
2023-03-15T10:40:47.351Z,101338.16
2023-03-15T10:43:19.211Z,101330.81
2023-03-15T10:46:00.077Z,101328.09
2023-03-15T10:48:28.176Z,101291.84
2023-03-15T10:50:56.486Z,101327.06
2023-03-15T10:53:26.985Z,101330.63
2023-03-15T10:56:00.054Z,101327.28
2023-03-15T10:58:28.750Z,101333.34
2023-03-15T11:01:00.938Z,101331.66
2023-03-15T11:03:28.986Z,101334.19
2023-03-15T11:05:57.672Z,101337.91
2023-03-15T11:08:37.278Z,101332.31
2023-03-15T11:11:05.348Z,101336.06
2023-03-15T11:13:33.818Z,101328.09
2023-03-15T11:16:04.255Z,101336.06
2023-03-15T11:18:35.261Z,101336.88
2023-03-15T11:21:05.103Z,101341.28
2023-03-15T11:23:35.886Z,101352.16
2023-03-15T11:26:03.901Z,101343.16
2023-03-15T11:28:32.793Z,101350.28
2023-03-15T11:31:01.013Z,101365.53
2023-03-15T11:33:39.361Z,101361.97
2023-03-15T11:36:11.215Z,101361.97
2023-03-15T11:38:44.033Z,101358.19
2023-03-15T11:41:21.716Z,101361.97
2023-03-15T11:43:53.203Z,101368.25
2023-03-15T11:46:26.268Z,101357.16
2023-03-15T11:48:56.915Z,101361.97
2023-03-15T11:51:24.834Z,101369.06
2023-03-15T11:54:03.970Z,101368.03
2023-03-15T11:56:50.708Z,101372.59
2023-03-15T11:59:20.144Z,101381.59
2023-03-15T12:01:49.713Z,101383.47
2023-03-15T12:04:51.005Z,101386.19
2023-03-15T12:07:44.321Z,101376.16
2023-03-15T12:10:46.419Z,101382.63
2023-03-15T12:13:23.889Z,101384.53
2023-03-15T12:15:52.059Z,101378.03
2023-03-15T12:18:31.537Z,101374.47
2023-03-15T12:21:07.705Z,101383.47
2023-03-15T12:23:41.311Z,101376.16
2023-03-15T12:26:15.471Z,101379.72
2023-03-15T12:28:51.046Z,101369.72
2023-03-15T12:31:19.055Z,101371.56
2023-03-15T12:33:48.436Z,101367.00
2023-03-15T12:36:31.747Z,101373.25
2023-03-15T12:39:04.375Z,101361.56
2023-03-15T12:41:39.033Z,101361.56
2023-03-15T12:44:38.360Z,101361.56
2023-03-15T12:47:06.630Z,101356.97
2023-03-15T12:49:36.794Z,101360.53
2023-03-15T12:52:05.753Z,101362.41
2023-03-15T12:54:38.752Z,101368.69
2023-03-15T12:57:11.291Z,101363.25
2023-03-15T12:59:46.257Z,101368.69
2023-03-15T13:02:42.246Z,101356.97
2023-03-15T13:05:18.935Z,101205.03
2023-03-15T13:07:58.175Z,101347.75
2023-03-15T13:10:40.084Z,101357.81
2023-03-15T13:13:14.771Z,101345.88
2023-03-15T13:15:44.590Z,101359.50
2023-03-15T13:18:17.822Z,101358.66
2023-03-15T13:20:51.801Z,101357.81
2023-03-15T13:23:21.284Z,101359.50
2023-03-15T13:25:56.103Z,101298.31
2023-03-15T13:28:26.148Z,101362.22
2023-03-15T13:30:55.186Z,101351.31
2023-03-15T13:33:24.571Z,101364.94
2023-03-15T13:35:57.573Z,101359.50
2023-03-15T13:38:28.293Z,101364.69
2023-03-15T13:40:56.721Z,101359.50
2023-03-15T13:43:31.418Z,101354.91
2023-03-15T13:45:59.684Z,101369.31
2023-03-15T13:48:28.657Z,101364.94
2023-03-15T13:50:57.370Z,101364.09
2023-03-15T13:53:35.737Z,101365.78
2023-03-15T13:56:17.030Z,101350.47
2023-03-15T13:58:46.341Z,101365.78
2023-03-15T14:01:14.660Z,101366.81
2023-03-15T14:03:43.997Z,101361.38
2023-03-15T14:06:13.367Z,101349.63
2023-03-15T14:08:41.299Z,101367.66
2023-03-15T14:11:12.226Z,101373.06
2023-03-15T14:13:49.879Z,101374.09
2023-03-15T14:16:19.325Z,101381.22
2023-03-15T14:18:51.292Z,101384.78
2023-03-15T14:21:20.509Z,101379.34
2023-03-15T14:23:49.582Z,101367.66
2023-03-15T14:26:18.669Z,101372.03
2023-03-15T14:28:52.047Z,101323.41
2023-03-15T14:31:24.264Z,101372.22
2023-03-15T14:33:56.917Z,101381.22
2023-03-15T14:36:26.899Z,101383.94
2023-03-15T14:38:55.761Z,101390.19
2023-03-15T14:41:33.112Z,101383.09
2023-03-15T14:44:03.230Z,101390.19
2023-03-15T14:46:31.880Z,101390.19
2023-03-15T14:49:00.118Z,101399.19
2023-03-15T14:51:28.414Z,101399.19
2023-03-15T14:53:57.397Z,101395.63
2023-03-15T14:56:25.569Z,101391.44
2023-03-15T14:58:55.128Z,101404.63
2023-03-15T15:01:25.579Z,101402.72
2023-03-15T15:03:54.616Z,101400.22
2023-03-15T15:06:22.912Z,101407.34
2023-03-15T15:08:52.416Z,101402.09
2023-03-15T15:11:20.418Z,101411.94
2023-03-15T15:13:48.376Z,101414.84
2023-03-15T15:16:16.332Z,101404.81
2023-03-15T15:18:45.612Z,101404.81
2023-03-15T15:21:14.662Z,101395.81
2023-03-15T15:23:56.790Z,101403.78
2023-03-15T15:26:26.586Z,101398.13
2023-03-15T15:28:54.813Z,101401.69
2023-03-15T15:31:23.988Z,101392.06
2023-03-15T15:33:53.636Z,101392.91
2023-03-15T15:36:23.767Z,101382.00
2023-03-15T15:38:52.077Z,101386.66
2023-03-15T15:41:22.231Z,101388.53
2023-03-15T15:43:50.352Z,101397.69
2023-03-15T15:46:18.423Z,101389.56
2023-03-15T15:48:46.405Z,101384.13
2023-03-15T15:51:25.002Z,101387.69
2023-03-15T15:53:53.474Z,101381.41
2023-03-15T15:56:21.618Z,101384.97
2023-03-15T15:58:50.027Z,101382.25
2023-03-15T16:01:18.024Z,101383.94
2023-03-15T16:03:45.914Z,101377.66
2023-03-15T16:06:17.461Z,101382.06
2023-03-15T16:08:46.802Z,101376.41
2023-03-15T16:11:15.547Z,101370.13
2023-03-15T16:13:43.505Z,101375.56
2023-03-15T16:16:14.404Z,101373.69
2023-03-15T16:18:42.711Z,101375.38
2023-03-15T16:21:15.982Z,101376.22
2023-03-15T16:23:44.049Z,101374.34
2023-03-15T16:26:15.386Z,101373.50
2023-03-15T16:28:43.508Z,101377.25
2023-03-15T16:31:12.375Z,101374.34
2023-03-15T16:33:40.972Z,101379.78
2023-03-15T16:36:17.726Z,101377.91
2023-03-15T16:38:45.668Z,101390.63
2023-03-15T16:41:16.879Z,101382.50
2023-03-15T16:43:47.886Z,101383.31
2023-03-15T16:46:17.519Z,101390.63
2023-03-15T16:48:46.006Z,101394.00
2023-03-15T16:51:15.659Z,101383.94
2023-03-15T16:53:45.147Z,101385.84
2023-03-15T16:56:17.584Z,101396.91
2023-03-15T16:58:45.590Z,101399.44
2023-03-15T17:01:13.560Z,101399.81
2023-03-15T17:03:41.621Z,101401.50
2023-03-15T17:06:15.319Z,101382.38
2023-03-15T17:08:43.205Z,101403.56
2023-03-15T17:11:11.143Z,101411.09
2023-03-15T17:13:41.911Z,101414.66
2023-03-15T17:16:12.077Z,101415.91
2023-03-15T17:18:40.018Z,101414.88
2023-03-15T17:21:08.517Z,101413.38
2023-03-15T17:23:36.633Z,101408.81
2023-03-15T17:26:04.510Z,101412.53
2023-03-15T17:28:32.380Z,101411.50
2023-03-15T17:31:23.359Z,101418.81
2023-03-15T17:33:49.525Z,101421.53
2023-03-15T17:36:19.734Z,101421.72
2023-03-15T17:38:48.124Z,101430.72
2023-03-15T17:41:19.343Z,101426.97
2023-03-15T17:43:47.281Z,101426.97
2023-03-15T17:46:16.627Z,101430.72
2023-03-15T17:48:44.631Z,101438.00
2023-03-15T17:51:12.994Z,101429.88
2023-03-15T17:53:40.877Z,101419.00
2023-03-15T17:56:09.531Z,101428.00
2023-03-15T17:58:37.426Z,101430.72
2023-03-15T18:01:09.432Z,101423.63
2023-03-15T18:03:39.325Z,101429.06
2023-03-15T18:06:07.790Z,101429.06
2023-03-15T18:08:35.784Z,101435.28
2023-03-15T18:11:03.961Z,101436.13
2023-03-15T18:13:31.829Z,101440.72
2023-03-15T18:15:59.753Z,101438.00
2023-03-15T18:18:27.945Z,101434.69
2023-03-15T18:20:57.530Z,101443.44
2023-03-15T18:23:25.429Z,101443.44
2023-03-15T18:25:53.385Z,101441.56
2023-03-15T18:28:21.285Z,101446.16
2023-03-15T18:30:49.220Z,101451.59
2023-03-15T18:33:17.354Z,101454.31
2023-03-15T18:35:45.346Z,101461.63
2023-03-15T18:38:16.232Z,101456.22
2023-03-15T18:40:44.460Z,101463.50
2023-03-15T18:43:13.598Z,101466.22
2023-03-15T18:45:41.589Z,101464.34
2023-03-15T18:48:09.510Z,101466.22
2023-03-15T18:50:37.722Z,101457.63
2023-03-15T18:53:06.494Z,101473.72
2023-03-15T18:55:35.873Z,101471.84
2023-03-15T18:58:03.791Z,101471.84
2023-03-15T19:00:35.971Z,101475.59
2023-03-15T19:03:04.468Z,101485.41
2023-03-15T19:05:33.880Z,101480.00
2023-03-15T19:08:01.798Z,101471.84
2023-03-15T19:10:29.990Z,101474.56
2023-03-15T19:12:59.293Z,101477.47
2023-03-15T19:15:27.327Z,101470.16
2023-03-15T19:17:55.477Z,101471.66
2023-03-15T19:20:24.542Z,101472.50
2023-03-15T19:22:52.673Z,101471.66
2023-03-15T19:25:20.624Z,101471.00
2023-03-15T19:27:48.676Z,101469.13
2023-03-15T19:30:21.200Z,101471.00
2023-03-15T19:32:49.971Z,101468.28
2023-03-15T19:35:19.167Z,101460.16
2023-03-15T19:37:47.209Z,101470.16
2023-03-15T19:40:15.734Z,101472.88
2023-03-15T19:42:43.700Z,101473.91
2023-03-15T19:45:12.944Z,101472.88
2023-03-15T19:47:42.265Z,101476.63
2023-03-15T19:50:11.832Z,101482.91
2023-03-15T19:52:45.699Z,101471.19
2023-03-15T19:55:13.935Z,101465.97
2023-03-15T19:57:41.936Z,101464.91
2023-03-15T20:00:13.371Z,101457.84
2023-03-15T20:02:42.925Z,101469.50
2023-03-15T20:05:11.411Z,101470.56
2023-03-15T20:07:39.407Z,101463.44
2023-03-15T20:10:10.148Z,101469.50
2023-03-15T20:12:38.972Z,101468.69
2023-03-15T20:15:10.093Z,101472.22
2023-03-15T20:17:38.046Z,101483.06
2023-03-15T20:20:10.984Z,101481.44
2023-03-15T20:22:41.215Z,101484.97
2023-03-15T20:25:09.908Z,101489.56
2023-03-15T20:27:37.995Z,101495.84
2023-03-15T20:30:09.881Z,101496.03
2023-03-15T20:32:37.881Z,101486.38
2023-03-15T20:35:09.407Z,101496.66
2023-03-15T20:37:39.805Z,101490.41
2023-03-15T20:40:10.693Z,101498.56
2023-03-15T20:42:38.677Z,101490.41
2023-03-15T20:45:09.721Z,101492.28
2023-03-15T20:47:38.087Z,101493.13
2023-03-15T20:50:08.523Z,101483.91
2023-03-15T20:52:36.572Z,101477.94
2023-03-15T20:55:05.883Z,101481.28
2023-03-15T20:57:33.875Z,101482.28
2023-03-15T21:00:02.116Z,101484.16
2023-03-15T21:02:30.116Z,101481.44
2023-03-15T21:04:58.015Z,101489.59
2023-03-15T21:07:27.400Z,101482.53
2023-03-15T21:09:55.343Z,101474.56
2023-03-15T21:12:23.270Z,101471.84
2023-03-15T21:14:51.499Z,101480.00
2023-03-15T21:17:20.685Z,101482.91
2023-03-15T21:19:48.866Z,101487.28
2023-03-15T21:22:18.319Z,101487.47
2023-03-15T21:24:55.467Z,101475.78
2023-03-15T21:27:26.110Z,101472.03
2023-03-15T21:29:54.589Z,101472.03
2023-03-15T21:32:22.784Z,101472.22
2023-03-15T21:34:50.872Z,101475.78
2023-03-15T21:37:18.847Z,101470.34
2023-03-15T21:39:48.182Z,101467.63
2023-03-15T21:42:16.137Z,101464.06
2023-03-15T21:44:44.375Z,101467.84
2023-03-15T21:47:14.087Z,101462.19
2023-03-15T21:49:44.759Z,101457.84
2023-03-15T21:52:12.797Z,101458.66
2023-03-15T21:54:42.065Z,101463.25
2023-03-15T21:57:12.716Z,101458.88
2023-03-15T21:59:40.977Z,101451.56
2023-03-15T22:02:09.078Z,101457.00
2023-03-15T22:04:37.232Z,101462.41
2023-03-15T22:07:05.246Z,101449.69
2023-03-15T22:09:33.461Z,101446.13
2023-03-15T22:12:01.442Z,101439.88
2023-03-15T22:14:30.765Z,101436.13
2023-03-15T22:16:58.683Z,101443.41
2023-03-15T22:19:26.993Z,101440.69
2023-03-15T22:21:56.262Z,101443.41
2023-03-15T22:24:24.226Z,101442.56
2023-03-15T22:26:53.038Z,101435.28
2023-03-15T22:29:21.584Z,101432.75
2023-03-15T22:31:51.599Z,101435.28
2023-03-15T22:34:19.840Z,101436.13
2023-03-15T22:36:47.746Z,101424.34
2023-03-15T22:39:15.918Z,101440.69
2023-03-15T22:41:44.226Z,101445.28
2023-03-15T22:44:12.143Z,101442.56
2023-03-15T22:46:40.129Z,101443.41
2023-03-15T22:49:09.486Z,101440.69
2023-03-15T22:51:40.318Z,101443.41
2023-03-15T22:54:08.239Z,101440.69
2023-03-15T22:56:36.159Z,101438.00
2023-03-15T22:59:04.331Z,101444.25
2023-03-15T23:01:32.337Z,101436.94
2023-03-15T23:04:00.719Z,101437.78
2023-03-15T23:06:30.318Z,101444.03
2023-03-15T23:08:58.474Z,101441.31
2023-03-15T23:11:26.411Z,101446.75
2023-03-15T23:13:54.310Z,101437.78
2023-03-15T23:16:23.483Z,101431.50
2023-03-15T23:18:51.889Z,101434.22
2023-03-15T23:21:19.877Z,101435.06
2023-03-15T23:23:49.177Z,101436.75
2023-03-15T23:26:19.515Z,101436.75
2023-03-15T23:28:47.747Z,101438.00
2023-03-15T23:31:15.692Z,101451.56
2023-03-15T23:33:47.015Z,101457.00
2023-03-15T23:36:15.008Z,101460.56
2023-03-15T23:38:42.901Z,101458.66
2023-03-15T23:41:12.462Z,101441.25
2023-03-15T23:43:40.366Z,101458.03
2023-03-15T23:46:08.345Z,101460.56
2023-03-15T23:48:37.093Z,101455.13
2023-03-15T23:51:05.436Z,101450.72
2023-03-15T23:53:33.384Z,101450.72
2023-03-15T23:56:01.347Z,101442.56
2023-03-15T23:58:30.667Z,101442.56
